Time;durP1;ratioP1;P1;durP2;ratioP2;P2;SDS_P1;SDS_P2;PMS_P1;PMS_P2;Temp;Humidity;BMP_temperature;BMP_pressure;BME280_temperature;BME280_humidity;BME280_pressure;Samples;Min_cycle;Max_cycle;Signal;HPM_P1;HPM_P2
2023/08/19 00:01:21;;;;;;;14.95;12.27;;;;;;;21.45;100.00;101125.94;5053506;28;20187;-87
2023/08/19 00:03:48;;;;;;;13.25;11.85;;;;;;;21.44;100.00;101126.06;5054260;28;20475;-87
2023/08/19 00:06:34;;;;;;;15.32;11.40;;;;;;;21.42;99.87;101118.25;5052062;28;20028;-87
2023/08/19 00:09:03;;;;;;;13.60;11.68;;;;;;;21.40;100.00;101112.22;5052299;28;20033;-87
2023/08/19 00:11:28;;;;;;;14.05;12.15;;;;;;;21.38;100.00;101101.72;5047487;28;20029;-87
2023/08/19 00:13:53;;;;;;;14.40;12.43;;;;;;;21.38;100.00;101107.00;5038079;28;20036;-88
2023/08/19 00:16:19;;;;;;;13.25;11.52;;;;;;;21.36;100.00;101098.31;5047156;28;20231;-88
2023/08/19 00:18:44;;;;;;;14.75;12.35;;;;;;;21.35;100.00;101096.63;5049846;28;20036;-88
2023/08/19 00:21:09;;;;;;;13.60;11.10;;;;;;;21.33;100.00;101095.91;5049706;28;20035;-87
2023/08/19 00:23:35;;;;;;;13.73;12.15;;;;;;;21.31;100.00;101095.16;5045477;28;20025;-87
2023/08/19 00:26:00;;;;;;;14.25;12.13;;;;;;;21.28;100.00;101098.00;5048015;28;20025;-87
2023/08/19 00:28:25;;;;;;;13.48;11.55;;;;;;;21.26;100.00;101097.25;5041430;28;20499;-87
2023/08/19 00:30:51;;;;;;;15.07;12.07;;;;;;;21.25;100.00;101098.19;5039014;28;20080;-88
2023/08/19 00:33:16;;;;;;;13.82;12.38;;;;;;;21.22;100.00;101096.63;5045531;28;20104;-88
2023/08/19 00:35:42;;;;;;;16.27;12.32;;;;;;;21.20;100.00;101098.50;5043440;28;20120;-87
2023/08/19 00:38:07;;;;;;;14.25;12.02;;;;;;;21.21;100.00;101104.63;5053803;28;20483;-88
2023/08/19 00:40:33;;;;;;;15.52;12.00;;;;;;;21.20;100.00;101105.59;5051552;28;20060;-87
2023/08/19 00:42:58;;;;;;;15.25;12.27;;;;;;;21.18;100.00;101099.56;5049804;28;20026;-87
2023/08/19 00:45:23;;;;;;;14.27;12.68;;;;;;;21.16;100.00;101102.31;5042608;28;20036;-87
2023/08/19 00:47:49;;;;;;;15.35;12.20;;;;;;;21.14;100.00;101104.19;5049327;28;20027;-88
2023/08/19 00:50:15;;;;;;;15.15;12.65;;;;;;;21.13;100.00;101107.78;5054011;28;20028;-87
2023/08/19 00:52:41;;;;;;;14.40;12.23;;;;;;;21.12;100.00;101099.97;5051074;28;20028;-87
2023/08/19 00:55:07;;;;;;;16.13;12.07;;;;;;;21.08;100.00;101097.53;5053787;28;20365;-88
2023/08/19 00:57:35;;;;;;;14.57;12.68;;;;;;;21.05;100.00;101095.06;5049522;28;20091;-87
2023/08/19 01:00:02;;;;;;;13.43;11.60;;;;;;;21.04;100.00;101109.25;5053922;28;20031;-87
2023/08/19 01:02:28;;;;;;;14.52;11.93;;;;;;;21.02;100.00;101105.84;5051174;28;20082;-87
2023/08/19 01:04:53;;;;;;;15.13;12.32;;;;;;;21.00;100.00;101107.78;5040806;28;20028;-87
2023/08/19 01:07:28;;;;;;;14.73;12.32;;;;;;;20.98;100.00;101095.59;5051280;28;20361;-88
2023/08/19 01:10:11;;;;;;;14.18;12.35;;;;;;;20.95;100.00;101098.41;5051513;28;20029;-87
2023/08/19 01:12:46;;;;;;;14.90;12.48;;;;;;;20.93;100.00;101101.19;5040920;28;20481;-87
2023/08/19 01:15:19;;;;;;;14.52;12.57;;;;;;;20.89;100.00;101094.38;5053021;28;20021;-87
2023/08/19 01:17:48;;;;;;;16.52;12.40;;;;;;;20.87;100.00;101086.56;5050663;28;20468;-87
2023/08/19 01:20:14;;;;;;;14.48;12.48;;;;;;;20.86;100.00;101090.16;5051073;28;20033;-88
2023/08/19 01:22:43;;;;;;;14.55;12.35;;;;;;;20.84;100.00;101092.06;5051843;28;20052;-87
2023/08/19 01:25:09;;;;;;;13.18;11.73;;;;;;;20.84;100.00;101094.69;5050637;28;20036;-88
2023/08/19 01:27:34;;;;;;;14.98;13.00;;;;;;;20.82;100.00;101086.00;5050595;28;20384;-87
2023/08/19 01:30:00;;;;;;;16.95;13.20;;;;;;;20.82;100.00;101085.19;5050381;28;20032;-87
2023/08/19 01:32:25;;;;;;;16.35;13.38;;;;;;;20.82;100.00;101079.88;5051180;28;20040;-87
2023/08/19 01:34:51;;;;;;;16.02;13.30;;;;;;;20.82;100.00;101082.53;5052174;28;20053;-87
2023/08/19 01:37:37;;;;;;;17.45;13.80;;;;;;;20.80;100.00;101082.63;5052929;28;20434;-87
2023/08/19 01:40:06;;;;;;;14.55;13.00;;;;;;;20.79;100.00;101070.34;5051444;28;20166;-87
2023/08/19 01:42:32;;;;;;;16.98;14.07;;;;;;;20.79;100.00;101072.16;5050378;28;20408;-87
2023/08/19 01:44:58;;;;;;;17.40;14.05;;;;;;;20.81;100.00;101070.25;5041259;28;20021;-87
2023/08/19 01:47:23;;;;;;;15.68;13.63;;;;;;;20.82;100.00;101066.66;5048435;28;20029;-87
2023/08/19 01:49:49;;;;;;;15.80;13.63;;;;;;;20.82;100.00;101059.56;5050212;28;20025;-88
2023/08/19 01:52:14;;;;;;;15.80;13.50;;;;;;;20.83;100.00;101055.16;5035896;28;20017;-88
2023/08/19 01:54:40;;;;;;;15.38;13.38;;;;;;;20.84;100.00;101054.16;5040222;28;20028;-87
2023/08/19 01:57:06;;;;;;;16.73;13.63;;;;;;;20.86;100.00;101052.28;5051820;28;20097;-87
2023/08/19 01:59:32;;;;;;;16.02;13.48;;;;;;;20.88;100.00;101047.72;5050387;28;20039;-87
2023/08/19 02:01:57;;;;;;;16.48;13.88;;;;;;;20.89;100.00;101046.78;5040766;28;20029;-87
2023/08/19 02:04:23;;;;;;;15.23;13.50;;;;;;;20.90;100.00;101053.78;5048414;28;20029;-87
2023/08/19 02:06:48;;;;;;;16.25;13.50;;;;;;;20.90;100.00;101051.13;5050962;28;20021;-88
2023/08/19 02:09:13;;;;;;;15.80;13.38;;;;;;;20.92;100.00;101049.22;5050111;28;20033;-88
2023/08/19 02:11:39;;;;;;;16.73;14.00;;;;;;;20.93;100.00;101045.66;5050437;28;20028;-87
2023/08/19 02:14:04;;;;;;;15.65;13.95;;;;;;;20.95;100.00;101046.41;5051624;28;20025;-88
2023/08/19 02:16:29;;;;;;;14.95;13.15;;;;;;;20.97;100.00;101054.22;5050849;28;20025;-87
2023/08/19 02:18:57;;;;;;;15.80;13.70;;;;;;;20.96;100.00;101042.81;5051708;28;20085;-88
2023/08/19 02:21:22;;;;;;;15.50;13.23;;;;;;;20.98;100.00;101050.63;5050099;28;20056;-87
2023/08/19 02:23:47;;;;;;;17.30;13.55;;;;;;;20.99;100.00;101047.03;5051564;28;20488;-87
2023/08/19 02:26:13;;;;;;;15.48;13.52;;;;;;;20.99;100.00;101042.59;5051743;28;20024;-87
2023/08/19 02:28:38;;;;;;;16.45;13.50;;;;;;;21.00;100.00;101046.06;5051615;28;20017;-87
2023/08/19 02:31:03;;;;;;;18.23;13.90;;;;;;;21.00;100.00;101044.31;5050338;28;20017;-88
2023/08/19 02:33:29;;;;;;;15.70;13.48;;;;;;;21.00;100.00;101039.00;5051824;28;20037;-87
2023/08/19 02:35:55;;;;;;;16.42;13.50;;;;;;;21.01;100.00;101037.19;5051526;28;20103;-87
2023/08/19 02:38:20;;;;;;;17.50;13.02;;;;;;;21.02;100.00;101038.91;5051501;28;20116;-88
2023/08/19 02:40:50;;;;;;;17.02;13.23;;;;;;;21.01;100.00;101035.38;5051606;28;20025;-87
2023/08/19 02:43:15;;;;;;;14.35;12.85;;;;;;;21.02;100.00;101033.59;5050329;28;20074;-88
2023/08/19 02:45:41;;;;;;;14.95;12.73;;;;;;;21.02;100.00;101026.50;5035536;28;20372;-87
2023/08/19 02:48:06;;;;;;;16.30;13.18;;;;;;;21.03;100.00;101022.91;5048422;28;20039;-88
2023/08/19 02:50:32;;;;;;;14.95;12.85;;;;;;;21.03;100.00;101025.56;5037378;28;20358;-88
2023/08/19 02:52:57;;;;;;;14.07;12.55;;;;;;;21.04;100.00;101027.25;5045248;28;20033;-87
2023/08/19 02:55:23;;;;;;;14.82;12.02;;;;;;;21.05;100.00;101021.00;5044566;28;20074;-87
2023/08/19 02:57:48;;;;;;;15.80;12.77;;;;;;;21.05;100.00;101017.53;5038592;28;20052;-87
2023/08/19 03:00:15;;;;;;;14.35;12.23;;;;;;;21.05;100.00;101020.19;5035947;28;20251;-87
2023/08/19 03:02:40;;;;;;;16.77;12.65;;;;;;;21.05;100.00;101022.81;5049170;28;20025;-88
2023/08/19 03:05:06;;;;;;;14.52;11.82;;;;;;;21.05;100.00;101021.00;5047143;28;20087;-88
2023/08/19 03:07:31;;;;;;;15.48;12.45;;;;;;;21.05;100.00;101013.06;5046440;28;20017;-87
2023/08/19 03:09:56;;;;;;;12.90;11.52;;;;;;;21.06;100.00;101022.72;5051037;28;20362;-88
2023/08/19 03:12:21;;;;;;;13.45;11.90;;;;;;;21.06;100.00;101022.72;5049349;28;20025;-87
2023/08/19 03:14:47;;;;;;;12.18;10.57;;;;;;;21.07;100.00;101023.56;5051955;28;20453;-88
2023/08/19 03:17:12;;;;;;;12.57;10.88;;;;;;;21.07;100.00;101021.75;5050939;28;20082;-88
2023/08/19 03:19:37;;;;;;;12.43;10.77;;;;;;;21.08;100.00;101022.63;5049535;28;20388;-87
2023/08/19 03:22:03;;;;;;;11.63;10.43;;;;;;;21.10;100.00;101017.22;5055076;28;20108;-87
2023/08/19 03:24:28;;;;;;;12.20;10.13;;;;;;;21.10;100.00;101019.84;5053668;28;20084;-88
2023/08/19 03:26:53;;;;;;;11.73;10.35;;;;;;;21.10;100.00;101020.69;5054622;28;20116;-88
2023/08/19 03:29:18;;;;;;;11.88;10.48;;;;;;;21.11;100.00;101019.75;5053672;28;20435;-88
2023/08/19 03:31:44;;;;;;;11.93;9.98;;;;;;;21.13;100.00;101017.00;5055219;28;20032;-87
2023/08/19 03:34:09;;;;;;;11.50;9.60;;;;;;;21.13;100.00;101019.66;5054263;28;20468;-87
2023/08/19 03:36:34;;;;;;;12.35;9.98;;;;;;;21.13;100.00;101022.31;5053596;28;20086;-88
2023/08/19 03:38:59;;;;;;;11.20;9.75;;;;;;;21.13;100.00;101011.72;5046633;28;20021;-87
2023/08/19 03:41:25;;;;;;;11.10;9.88;;;;;;;21.12;100.00;101005.56;5046374;28;20021;-88
2023/08/19 03:43:50;;;;;;;10.68;9.20;;;;;;;21.12;100.00;101004.72;5054345;28;20029;-87
2023/08/19 03:46:15;;;;;;;11.57;9.18;;;;;;;21.12;100.00;101005.56;5054142;28;20427;-88
2023/08/19 03:48:40;;;;;;;10.77;9.05;;;;;;;21.11;100.00;101006.50;5051838;28;20253;-87
2023/08/19 03:51:06;;;;;;;13.00;10.10;;;;;;;21.12;100.00;101010.03;5054291;28;20032;-88
2023/08/19 03:53:31;;;;;;;12.50;9.27;;;;;;;21.11;100.00;101014.44;5054977;28;20031;-87
2023/08/19 03:55:56;;;;;;;10.52;9.43;;;;;;;21.12;100.00;101016.16;5053786;28;20053;-88
2023/08/19 03:58:21;;;;;;;10.13;9.02;;;;;;;21.13;100.00;101017.84;5054185;28;20542;-88
2023/08/19 04:00:47;;;;;;;11.95;9.48;;;;;;;21.15;100.00;101017.75;5052134;28;20027;-88
2023/08/19 04:03:13;;;;;;;10.50;9.25;;;;;;;21.12;100.00;101016.16;5052395;28;20051;-87
2023/08/19 04:05:38;;;;;;;13.25;9.25;;;;;;;21.12;100.00;101020.59;5041471;28;20033;-88
2023/08/19 04:08:04;;;;;;;11.55;9.48;;;;;;;21.12;100.00;101016.16;5035100;28;20481;-88
2023/08/19 04:10:29;;;;;;;9.55;8.60;;;;;;;21.13;100.00;101022.31;5053673;28;20040;-88
2023/08/19 04:12:54;;;;;;;10.10;8.57;;;;;;;21.13;100.00;101019.66;5053860;28;20108;-88
2023/08/19 04:15:19;;;;;;;10.00;8.57;;;;;;;21.12;100.00;101010.03;5053537;28;20090;-88
2023/08/19 04:17:45;;;;;;;9.52;8.38;;;;;;;21.11;100.00;101014.44;5054232;28;20487;-88
2023/08/19 04:20:12;;;;;;;9.95;8.48;;;;;;;21.13;100.00;101017.00;5045253;28;20075;-87
2023/08/19 04:22:37;;;;;;;9.98;8.23;;;;;;;21.12;100.00;101016.16;5052559;28;20102;-88
2023/08/19 04:25:02;;;;;;;10.40;8.23;;;;;;;21.14;100.00;101006.31;5052058;28;20067;-87
2023/08/19 04:27:28;;;;;;;9.32;8.07;;;;;;;21.15;100.00;101004.53;5053343;28;20497;-88
2023/08/19 04:29:54;;;;;;;10.73;8.18;;;;;;;21.16;100.00;101011.53;5052920;28;20032;-88
2023/08/19 04:32:19;;;;;;;10.10;7.57;;;;;;;21.16;100.00;101008.88;5053629;28;20151;-88
2023/08/19 04:34:44;;;;;;;10.57;8.30;;;;;;;21.18;100.00;101025.50;5052152;28;20044;-88
2023/08/19 04:37:09;;;;;;;10.57;8.10;;;;;;;21.19;100.00;101029.81;5054227;28;20112;-88
2023/08/19 04:39:36;;;;;;;9.98;8.40;;;;;;;21.19;100.00;101028.03;5053411;28;20041;-87
2023/08/19 04:42:01;;;;;;;11.52;8.23;;;;;;;21.20;100.00;101026.22;5053984;28;20092;-87
2023/08/19 04:44:27;;;;;;;9.00;7.25;;;;;;;21.20;100.00;101035.00;5046350;28;20136;-87
2023/08/19 04:46:53;;;;;;;10.10;7.38;;;;;;;21.20;100.00;101032.38;5053910;28;20052;-88
2023/08/19 04:49:18;;;;;;;8.63;7.72;;;;;;;21.21;100.00;101033.19;5053963;28;20491;-88
2023/08/19 04:51:43;;;;;;;9.90;7.30;;;;;;;21.21;100.00;101035.84;5052768;28;20032;-88
2023/08/19 04:54:09;;;;;;;10.27;7.65;;;;;;;21.20;100.00;101040.31;5051300;28;20024;-87
2023/08/19 04:56:34;;;;;;;11.05;8.15;;;;;;;21.22;100.00;101045.47;5052639;28;20049;-88
2023/08/19 04:59:00;;;;;;;8.07;7.13;;;;;;;21.22;100.00;101043.69;5053791;28;20033;-88
2023/08/19 05:01:28;;;;;;;9.18;7.75;;;;;;;21.21;100.00;101052.59;5050778;28;20037;-88
2023/08/19 05:03:54;;;;;;;10.75;7.45;;;;;;;21.22;100.00;101049.00;5051270;28;20104;-88
2023/08/19 05:06:20;;;;;;;10.52;7.68;;;;;;;21.23;100.00;101040.09;5049319;28;20112;-88
2023/08/19 05:08:45;;;;;;;10.00;7.53;;;;;;;21.22;100.00;101037.53;5052151;28;20048;-87
2023/08/19 05:11:10;;;;;;;9.32;7.43;;;;;;;21.23;100.00;101041.88;5052497;28;20383;-88
2023/08/19 05:13:36;;;;;;;11.52;7.78;;;;;;;21.23;100.00;101033.94;5052316;28;20037;-84
2023/08/19 05:16:02;;;;;;;9.35;7.68;;;;;;;21.23;100.00;101033.94;5049465;28;20040;-88
2023/08/19 05:18:28;;;;;;;11.05;7.43;;;;;;;21.25;100.00;101025.91;5050949;28;20024;-87
2023/08/19 05:20:53;;;;;;;9.98;7.32;;;;;;;21.25;100.00;101034.69;5051775;28;20070;-87
2023/08/19 05:23:19;;;;;;;10.60;7.25;;;;;;;21.26;100.00;101024.97;5045633;28;20040;-87
2023/08/19 05:25:44;;;;;;;10.57;7.18;;;;;;;21.27;100.00;101035.44;5047463;28;20028;-87
2023/08/19 05:28:11;;;;;;;7.68;6.80;;;;;;;21.28;100.00;101042.44;5050222;28;20040;-87
2023/08/19 05:30:36;;;;;;;10.30;7.32;;;;;;;21.30;100.00;101039.66;5050832;28;20036;-88
2023/08/19 05:33:01;;;;;;;11.05;7.55;;;;;;;21.32;100.00;101043.06;5050091;28;20380;-87
2023/08/19 05:35:27;;;;;;;10.23;7.57;;;;;;;21.33;100.00;101045.63;5050597;28;20064;-88
2023/08/19 05:37:52;;;;;;;9.05;7.43;;;;;;;21.35;100.00;101048.97;5042960;28;20020;-88
2023/08/19 05:40:17;;;;;;;9.68;7.18;;;;;;;21.38;100.00;101047.94;5041562;28;20190;-88
2023/08/19 05:42:43;;;;;;;8.95;6.80;;;;;;;21.40;100.00;101061.06;5046366;28;20136;-88
2023/08/19 05:45:08;;;;;;;8.05;6.85;;;;;;;21.40;99.63;101051.34;5040537;28;20036;-88
2023/08/19 05:47:34;;;;;;;8.88;6.85;;;;;;;21.41;99.65;101054.81;5050695;28;20048;-88
2023/08/19 05:49:59;;;;;;;7.85;6.60;;;;;;;21.42;99.39;101062.66;5052261;28;20078;-87
2023/08/19 05:52:24;;;;;;;9.15;6.60;;;;;;;21.45;99.17;101064.25;5050524;28;20405;-88
2023/08/19 05:54:50;;;;;;;7.93;6.22;;;;;;;21.47;99.54;101063.19;5054395;28;20154;-87
2023/08/19 05:57:15;;;;;;;8.65;6.45;;;;;;;21.50;99.56;101065.63;5048710;28;20041;-88
2023/08/19 05:59:40;;;;;;;10.85;6.78;;;;;;;21.52;99.43;101062.88;5050289;28;20086;-87
2023/08/19 06:02:06;;;;;;;8.75;6.50;;;;;;;21.55;99.65;101070.59;5048969;28;20522;-87
2023/08/19 06:04:31;;;;;;;7.43;6.05;;;;;;;21.58;99.45;101067.75;5049915;28;20032;-87
2023/08/19 06:06:56;;;;;;;9.45;6.68;;;;;;;21.61;99.33;101070.22;5050545;28;20132;-87
2023/08/19 06:09:21;;;;;;;9.68;6.82;;;;;;;21.64;99.83;101054.13;5047835;28;20033;-88
2023/08/19 06:11:52;;;;;;;7.82;6.57;;;;;;;21.66;99.12;101065.44;5049200;28;20020;-88
2023/08/19 06:14:18;;;;;;;7.83;6.77;;;;;;;21.68;99.29;101050.31;5051803;28;20032;-88
2023/08/19 06:16:45;;;;;;;11.68;7.50;;;;;;;21.72;98.80;101063.31;5051856;28;20025;-87
2023/08/19 06:19:12;;;;;;;8.07;6.80;;;;;;;21.73;98.34;101057.06;5050162;28;20025;-87
2023/08/19 06:21:37;;;;;;;9.25;6.55;;;;;;;21.77;98.09;101053.25;5033815;28;20025;-87
2023/08/19 06:24:03;;;;;;;9.45;6.43;;;;;;;21.79;97.61;101062.78;5046302;28;20032;-88
2023/08/19 06:26:29;;;;;;;7.32;6.10;;;;;;;21.83;96.94;101068.72;5052453;28;20025;-88
2023/08/19 06:28:54;;;;;;;7.93;6.50;;;;;;;21.85;97.17;101066.81;5051197;28;20037;-88
2023/08/19 06:31:20;;;;;;;9.57;6.45;;;;;;;21.88;96.68;101069.22;5050681;28;20028;-87
2023/08/19 06:33:45;;;;;;;9.50;6.05;;;;;;;21.91;96.27;101076.13;5043471;28;20038;-88
2023/08/19 06:36:13;;;;;;;8.05;6.13;;;;;;;21.95;96.31;101078.47;5049293;28;20032;-87
2023/08/19 06:38:42;;;;;;;8.15;6.25;;;;;;;21.97;96.24;101081.84;5051322;28;20037;-87
2023/08/19 06:41:11;;;;;;;10.80;6.50;;;;;;;22.00;96.19;101091.38;5049416;28;20025;-88
2023/08/19 06:43:40;;;;;;;7.50;5.97;;;;;;;22.04;95.96;101098.16;5050218;28;20540;-88
2023/08/19 06:46:07;;;;;;;8.05;5.93;;;;;;;22.06;95.04;101093.59;5041582;28;20029;-87
2023/08/19 06:48:33;;;;;;;8.73;6.38;;;;;;;22.08;95.52;101099.63;5048713;28;20031;-88
2023/08/19 06:51:00;;;;;;;8.85;6.13;;;;;;;22.11;95.14;101102.06;5050465;28;20033;-87
2023/08/19 06:53:26;;;;;;;9.80;6.13;;;;;;;22.14;95.70;101101.00;5048757;28;20095;-87
2023/08/19 06:56:23;;;;;;;11.15;6.35;;;;;;;22.20;95.07;101108.53;5044811;28;20056;-88
2023/08/19 06:58:52;;;;;;;12.55;6.45;;;;;;;22.24;94.72;101106.50;5049608;28;20059;-88
2023/08/19 07:01:24;;;;;;;9.10;6.38;;;;;;;22.28;94.22;101108.81;5059258;28;20047;-86
2023/08/19 07:03:52;;;;;;;9.95;6.57;;;;;;;22.33;93.91;101107.66;5058392;28;20181;-86
2023/08/19 07:06:20;;;;;;;8.05;6.85;;;;;;;22.39;94.48;101113.34;5054093;28;20025;-86
2023/08/19 07:08:45;;;;;;;7.38;6.30;;;;;;;22.44;94.55;101110.41;5051769;28;20013;-86
2023/08/19 07:11:11;;;;;;;7.55;6.50;;;;;;;22.50;93.62;101117.91;5052158;28;20029;-86
2023/08/19 07:13:36;;;;;;;8.95;6.20;;;;;;;22.56;93.46;101121.94;5055132;28;20032;-87
2023/08/19 07:16:03;;;;;;;7.85;6.30;;;;;;;22.63;93.39;101119.66;5053446;28;20104;-85
2023/08/19 07:18:35;;;;;;;7.20;6.30;;;;;;;22.68;89.84;101120.19;5055774;28;20481;-87
2023/08/19 07:21:02;;;;;;;10.48;6.25;;;;;;;22.77;92.50;101121.34;5054471;28;20066;-87
2023/08/19 07:23:28;;;;;;;9.73;6.47;;;;;;;22.80;90.84;101124.59;5054885;28;20044;-86
2023/08/19 07:25:54;;;;;;;11.88;6.75;;;;;;;22.82;91.27;101120.03;5057931;28;20025;-85
2023/08/19 07:28:23;;;;;;;7.32;6.35;;;;;;;22.87;91.37;101128.50;5057914;28;20414;-85
2023/08/19 07:30:48;;;;;;;8.13;6.10;;;;;;;22.95;91.27;101129.72;5055079;28;20541;-86
2023/08/19 07:33:13;;;;;;;7.32;6.45;;;;;;;23.03;90.43;101137.97;5060580;28;20028;-86
2023/08/19 07:35:39;;;;;;;8.85;6.35;;;;;;;23.14;90.74;101138.03;5054894;28;20467;-86
2023/08/19 07:38:05;;;;;;;8.95;6.50;;;;;;;23.27;90.57;101134.47;5061233;28;20037;-87
2023/08/19 07:40:30;;;;;;;10.95;6.28;;;;;;;23.39;89.41;101138.88;5055510;28;20028;-86
2023/08/19 07:42:56;;;;;;;8.75;6.65;;;;;;;23.52;88.61;101137.94;5054254;28;20072;-87
2023/08/19 07:45:21;;;;;;;7.75;6.40;;;;;;;23.61;87.54;101137.22;5055350;28;20380;-87
2023/08/19 07:47:46;;;;;;;8.90;6.47;;;;;;;23.69;87.31;101139.28;5055021;28;20495;-86
2023/08/19 07:50:12;;;;;;;9.75;6.65;;;;;;;23.74;87.19;101137.13;5057518;28;20036;-86
2023/08/19 07:52:37;;;;;;;10.32;7.15;;;;;;;23.77;87.72;101148.34;5054189;28;20561;-87
2023/08/19 07:55:03;;;;;;;8.30;6.40;;;;;;;23.82;86.23;101171.06;5055058;28;20734;-86
2023/08/19 07:57:28;;;;;;;10.13;6.50;;;;;;;23.88;88.34;101165.28;5055279;28;20056;-86
2023/08/19 07:59:53;;;;;;;8.43;6.05;;;;;;;23.92;86.01;101166.72;5055082;28;20391;-87
2023/08/19 08:02:18;;;;;;;8.80;5.90;;;;;;;24.02;87.26;101167.75;5069768;28;20043;-86
2023/08/19 08:04:44;;;;;;;7.30;5.90;;;;;;;24.15;88.51;101169.44;5054697;28;20029;-85
2023/08/19 08:07:09;;;;;;;6.97;6.22;;;;;;;24.23;86.17;101175.03;5059606;28;20085;-86
2023/08/19 08:09:35;;;;;;;8.48;5.53;;;;;;;24.28;86.59;101172.81;5058743;28;20033;-86
2023/08/19 08:12:00;;;;;;;9.77;5.80;;;;;;;24.29;85.53;101174.53;5055723;28;20056;-86
2023/08/19 08:14:25;;;;;;;10.15;6.20;;;;;;;24.30;85.82;101178.88;5052328;28;20029;-86
2023/08/19 08:16:51;;;;;;;8.82;6.15;;;;;;;24.28;84.16;101178.16;5054631;28;20125;-86
2023/08/19 08:19:16;;;;;;;7.72;5.93;;;;;;;24.28;84.90;101166.69;5051468;28;20549;-86
2023/08/19 08:21:41;;;;;;;7.82;5.65;;;;;;;24.28;83.53;101162.19;5051906;28;20477;-86
2023/08/19 08:24:07;;;;;;;7.47;5.78;;;;;;;24.29;85.10;101169.19;5052704;28;20033;-87
2023/08/19 08:26:32;;;;;;;6.63;5.50;;;;;;;24.30;83.59;101173.56;5051588;28;20031;-86
2023/08/19 08:28:57;;;;;;;9.57;5.85;;;;;;;24.29;85.20;101166.53;5055097;28;20064;-86
2023/08/19 08:31:23;;;;;;;6.47;5.43;;;;;;;24.31;85.15;101180.56;5056960;28;20392;-86
2023/08/19 08:33:48;;;;;;;11.30;5.50;;;;;;;24.31;84.55;101182.38;5051364;28;20025;-86
2023/08/19 08:36:14;;;;;;;7.63;5.28;;;;;;;24.31;85.24;101171.75;5055725;28;20051;-86
2023/08/19 08:38:39;;;;;;;7.05;5.55;;;;;;;24.30;84.38;101186.84;5051075;28;20036;-87
2023/08/19 08:41:08;;;;;;;8.13;5.22;;;;;;;24.30;84.69;101200.16;5050994;28;20027;-87
2023/08/19 08:43:33;;;;;;;7.72;5.85;;;;;;;24.30;84.03;101208.13;5051095;28;20107;-87
2023/08/19 08:46:00;;;;;;;7.22;5.40;;;;;;;24.33;85.52;101217.69;5054017;28;20078;-87
2023/08/19 08:48:28;;;;;;;8.30;5.50;;;;;;;24.32;84.13;101222.16;5051373;28;20052;-86
2023/08/19 08:50:55;;;;;;;8.15;5.60;;;;;;;24.32;84.69;101216.81;5048339;28;20028;-86
2023/08/19 08:53:21;;;;;;;9.77;5.82;;;;;;;24.28;84.41;101218.03;5053628;28;20028;-85
2023/08/19 08:55:46;;;;;;;10.93;5.72;;;;;;;24.28;84.30;101214.53;5053928;28;20036;-85
2023/08/19 08:58:12;;;;;;;10.40;6.20;;;;;;;24.27;84.81;101218.16;5045565;28;20456;-86
2023/08/19 09:00:40;;;;;;;9.48;6.32;;;;;;;24.25;85.49;101221.78;5049567;28;20035;-84
2023/08/19 09:03:07;;;;;;;11.30;6.18;;;;;;;24.24;86.57;101235.19;5050255;28;20032;-86
2023/08/19 09:05:35;;;;;;;8.20;6.30;;;;;;;24.21;86.77;101238.09;5055433;28;20055;-86
2023/08/19 09:08:03;;;;;;;9.88;6.60;;;;;;;24.20;86.49;101239.06;5053357;28;20098;-86
2023/08/19 09:10:33;;;;;;;9.77;6.32;;;;;;;24.18;87.24;101246.31;5057413;28;20048;-86
2023/08/19 09:12:59;;;;;;;9.70;6.60;;;;;;;24.17;87.45;101249.94;5051426;28;20079;-86
2023/08/19 09:15:29;;;;;;;15.15;6.40;;;;;;;24.16;87.16;101259.72;5050529;28;20095;-87
2023/08/19 09:17:58;;;;;;;9.43;6.07;;;;;;;24.16;87.90;101257.06;5053385;28;20036;-87
2023/08/19 09:20:25;;;;;;;10.98;6.13;;;;;;;24.18;87.84;101262.25;5053854;28;20032;-86
2023/08/19 09:22:51;;;;;;;13.07;6.47;;;;;;;24.21;88.40;101262.03;5057191;28;20023;-86
2023/08/19 09:25:16;;;;;;;8.80;6.60;;;;;;;24.26;87.79;101259.84;5054701;28;20017;-86
2023/08/19 09:27:44;;;;;;;9.27;6.40;;;;;;;24.30;86.79;101260.47;5053415;28;20020;-86
2023/08/19 09:30:13;;;;;;;8.52;6.38;;;;;;;24.34;87.08;101268.06;5055104;28;20392;-86
2023/08/19 09:32:41;;;;;;;10.82;6.55;;;;;;;24.39;87.11;101265.91;5051602;28;20396;-86
2023/08/19 09:35:09;;;;;;;9.10;6.80;;;;;;;24.45;87.21;101259.25;5051699;28;20040;-87
2023/08/19 09:37:36;;;;;;;9.25;6.35;;;;;;;24.52;87.31;101265.78;5050298;28;20053;-85
2023/08/19 09:40:13;;;;;;;8.88;7.05;;;;;;;24.57;86.89;101272.56;5051868;28;20502;-86
2023/08/19 09:42:40;;;;;;;9.15;7.10;;;;;;;24.62;86.67;101270.38;5052752;28;20029;-86
2023/08/19 09:45:06;;;;;;;11.32;7.45;;;;;;;24.68;86.53;101276.06;5055602;28;20040;-86
2023/08/19 09:47:45;;;;;;;10.23;7.32;;;;;;;24.74;86.64;101279.25;5056720;28;20098;-87
2023/08/19 09:50:10;;;;;;;12.32;7.30;;;;;;;24.77;84.65;101281.66;5054850;28;20046;-86
2023/08/19 09:52:37;;;;;;;9.93;8.10;;;;;;;24.81;85.40;101293.75;5051694;28;20017;-87
2023/08/19 09:55:03;;;;;;;12.70;8.77;;;;;;;24.82;84.60;101301.63;5050282;28;20020;-86
2023/08/19 09:57:33;;;;;;;10.88;8.43;;;;;;;24.87;85.55;101301.25;5054884;28;20044;-87
2023/08/19 10:00:00;;;;;;;10.70;8.60;;;;;;;24.93;85.26;101295.47;5052418;28;20032;-87
2023/08/19 10:02:27;;;;;;;11.23;8.43;;;;;;;24.99;86.26;101307.41;5049012;28;20048;-86
2023/08/19 10:04:53;;;;;;;10.00;8.55;;;;;;;25.01;84.82;101313.47;5052393;28;20059;-86
2023/08/19 10:07:22;;;;;;;13.35;9.02;;;;;;;25.03;85.24;101316.00;5053372;28;20406;-86
2023/08/19 10:09:50;;;;;;;11.75;8.38;;;;;;;25.03;85.17;101332.81;5054897;28;20041;-87
2023/08/19 10:12:17;;;;;;;12.18;9.52;;;;;;;25.06;85.29;101331.72;5052345;28;20073;-89
2023/08/19 10:14:47;;;;;;;12.35;9.43;;;;;;;25.09;85.49;101336.81;5049175;28;20070;-87
2023/08/19 10:17:13;;;;;;;14.83;9.03;;;;;;;25.15;85.03;101344.28;5049889;28;20138;-85
2023/08/19 10:19:53;;;;;;;12.13;9.70;;;;;;;25.18;85.36;101344.06;5053058;28;20287;-86
2023/08/19 10:22:19;;;;;;;11.43;8.80;;;;;;;25.20;85.18;101341.25;5052005;28;20081;-86
2023/08/19 10:24:47;;;;;;;13.15;9.25;;;;;;;25.24;85.36;101340.03;5055289;28;20021;-86
2023/08/19 10:27:19;;;;;;;15.23;9.05;;;;;;;25.30;85.00;101340.41;5048836;28;20025;-85
2023/08/19 10:29:48;;;;;;;11.70;8.95;;;;;;;25.36;83.83;101344.41;5054768;28;20484;-87
2023/08/19 10:32:32;;;;;;;10.45;8.63;;;;;;;25.42;85.38;101351.06;5052392;28;20055;-87
2023/08/19 10:35:09;;;;;;;13.40;9.15;;;;;;;25.43;84.33;101344.78;5055074;28;20119;-86
2023/08/19 10:37:41;;;;;;;12.10;9.00;;;;;;;25.45;83.54;101351.66;5054185;28;20055;-87
2023/08/19 10:40:11;;;;;;;12.13;9.00;;;;;;;25.48;82.51;101357.72;5051096;28;20028;-87
2023/08/19 10:42:36;;;;;;;13.40;8.50;;;;;;;25.51;83.29;101352.97;5052404;28;20028;-86
2023/08/19 10:45:03;;;;;;;10.82;8.65;;;;;;;25.56;83.05;101365.91;5052372;28;20402;-85
2023/08/19 10:47:29;;;;;;;10.32;8.77;;;;;;;25.61;82.03;101358.41;5055087;28;20032;-85
2023/08/19 10:50:07;;;;;;;12.90;8.93;;;;;;;25.64;82.59;101359.97;5052645;28;20036;-86
2023/08/19 10:52:32;;;;;;;11.80;8.57;;;;;;;25.65;82.05;101364.31;5053435;28;20025;-86
2023/08/19 10:54:59;;;;;;;10.95;8.52;;;;;;;25.65;81.48;101380.31;5048848;28;20368;-87
2023/08/19 10:57:26;;;;;;;11.77;9.55;;;;;;;25.63;82.07;101376.91;5047881;28;20049;-88
2023/08/19 10:59:59;;;;;;;10.43;8.90;;;;;;;25.56;82.05;101390.75;5050442;28;20017;-88
2023/08/19 11:02:27;;;;;;;11.60;9.45;;;;;;;25.50;81.67;101395.75;5051862;28;20039;-86
2023/08/19 11:04:53;;;;;;;14.07;9.93;;;;;;;25.46;82.34;101405.78;5053768;28;20032;-84
2023/08/19 11:07:20;;;;;;;13.63;8.90;;;;;;;25.37;82.50;101414.47;5056592;28;20044;-85
2023/08/19 11:09:47;;;;;;;11.73;9.35;;;;;;;25.30;83.19;101414.97;5051564;28;20032;-86
2023/08/19 11:12:15;;;;;;;10.82;9.10;;;;;;;25.26;82.21;101418.00;5054882;28;20376;-87